Terminal Aerodrome Forecast
Issued by NWS

Home | Current Version | Previous Version | Text Only | Print | Product List | Glossary On
Versions: 1 2 3 4 5 6 7 8 9 10 11 12 13 14 15 16 17 18 19 20
000
FTUS41 KBGM 082324
TAFITH
TAF
KITH 082324Z 0900/0924 27008KT 6SM -SN BKN025 OVC050
      TEMPO 0900/0903 3/4SM -SN BKN015
     FM090700 29011KT P6SM OVC025
     FM091500 30012G20KT 6SM -SN OVC030
     FM092300 30008KT P6SM -SN BKN040=

USA.gov is the U.S. government's official web portal to all federal, state and local government web resources and services.